Franklin, Michigan
Current Conditions -  °F | °C
As of 12:55 AM on Friday 31 Oct 2014 (Local Time) from KVLL Reporting Station
Overcast Overcast  
Wind Chill: 45°   Ceiling: 5000
Heat Index: 47°   Visibility: 10mi
Dew Point: 35°   Wind: 5mph
Humidity: 62%   Direction: 220°SW
Pressure: 30"   Gusts: NA
Location:  42.52°N, 83.31°W
Report Text: KVLL 310455Z AUTO 22004KT 10SM OVC050 09/02 A3000 RMK AO2 T00850017
Loading
Personal Weather Stations






























Interactive Weather Map
Tropical Storm Tracking
New forecast layout! Learn more

10-Day Weather Forecast

Advertisements
Track Severe Weather on mobile